Toledo, OH (43635)

3:24 PM EDT on August 29, 2015 (GMT -0400)
Holland/Springfield TWP Hol-Sylv@Angola | | Change Station
CLOSE
Current Station
Personal Weather Station
Location: Toledo, OH
Elevation: 630 ft
Nearby Weather Stations

Elev 630 ft 41.62 °N, 83.68 °W | Updated 1 second ago

Mostly Cloudy
Mostly Cloudy
80.8 °F
Feels Like 83 °F
N
3.2
Wind Variable Wind from SE
Gusts 6.3 mph

Today
High -- | Low -- °F
--% Chance of Precip.
Yesterday
High -- | Low -- °F
Precip. -- in
6:57 AM 8:13 PM
Full, 100% visible
Pressure 30.06 in
Visibility 10.0 miles
Clouds Few 9500 ft
Heat Index 83 °F
Dew Point 65 °F
Humidity 59%
Rainfall 0.00 in
Snow Depth Not available.
UV 8 out of 12
Pollen 8.60 out of 12
Air Quality Not available.
Flu Activity Not available.
METAR KTDZ 291853Z AUTO 17006KT 10SM FEW095 27/17 A3007 RMK AO2 SLP179 T02670172
Pressure 30.06 in
Visibility 10.0 miles
Clouds Few 9500 ft
Heat Index 83 °F
Dew Point 65 °F
Humidity 59%
Rainfall 0.00 in
Snow Depth Not available.
UV 8 out of 12
Pollen 8.60 out of 12
Air Quality Not available.
Flu Activity Not available.
METAR KTDZ 291853Z AUTO 17006KT 10SM FEW095 27/17 A3007 RMK AO2 SLP179 T02670172

10-Day Weather Forecast

×

Almanac

Astronomy

Aug. 29, 2015 Rise Set
Actual Time
Civil Twilight
Nautical Twilight
Astronomical Twilight
Moon
Length of Visible Light
Length of Day
Tomorrow will be .
, % of the Moon is Illuminated

Today's Extremes

State Highs State Lows

Community

WunderPhotos

Upload Photos

1,850,780 photos uploaded!

WunderBlogs® & News

Nearby

Air Quality

  Air Quality AQ Index Pollutant
Not available.

Snow Depth

Station Depth Elevation

Earthquake Activity

City Distance Mag. Time & Date
Minimum magnitude displayed is 2.5.

Coastal Water Temperatures

Place Temperature

Stations

Nearby Weather Stations

Station Location Temp. Windchill Dew Point Humidity Wind Precip. Elev Updated Type